Time;durP1;ratioP1;P1;durP2;ratioP2;P2;SDS_P1;SDS_P2;PMS_P1;PMS_P2;Temp;Humidity;BMP_temperature;BMP_pressure;BME280_temperature;BME280_humidity;BME280_pressure;Samples;Min_cycle;Max_cycle;Signal;HPM_P1;HPM_P2
2022/03/21 00:02:11;;;;;;;11.40;7.30;;;1.90;83.70;;;;;;4979833;28;20194;-78
2022/03/21 00:04:36;;;;;;;10.50;8.13;;;1.90;83.70;;;;;;4980756;28;20167;-78
2022/03/21 00:07:02;;;;;;;13.43;8.50;;;1.80;83.80;;;;;;4969381;29;20190;-74
2022/03/21 00:09:28;;;;;;;12.17;8.57;;;1.80;83.80;;;;;;4955473;29;20281;-75
2022/03/21 00:11:53;;;;;;;10.87;7.47;;;1.80;83.80;;;;;;4954276;29;20221;-75
2022/03/21 00:14:19;;;;;;;12.60;8.40;;;1.70;84.30;;;;;;4955620;29;20187;-75
2022/03/21 00:16:44;;;;;;;13.27;8.00;;;1.60;84.70;;;;;;4955644;29;20254;-75
2022/03/21 00:19:10;;;;;;;15.93;7.20;;;1.60;85.20;;;;;;4955546;29;20171;-74
2022/03/21 00:21:36;;;;;;;11.50;7.53;;;1.50;85.40;;;;;;4955491;28;20202;-75
2022/03/21 00:24:02;;;;;;;11.57;8.10;;;1.40;85.60;;;;;;4955298;29;20209;-75
2022/03/21 00:26:28;;;;;;;10.27;6.57;;;1.30;85.90;;;;;;4954708;28;20179;-75
2022/03/21 00:28:54;;;;;;;14.00;8.30;;;1.30;86.40;;;;;;4937988;29;20923;-75
2022/03/21 00:31:19;;;;;;;10.93;8.00;;;1.20;86.30;;;;;;4955296;28;20700;-75
2022/03/21 00:33:45;;;;;;;13.43;7.80;;;1.00;87.70;;;;;;4955274;29;20198;-76
2022/03/21 00:36:10;;;;;;;11.63;8.00;;;0.90;87.60;;;;;;4955227;29;20186;-75
2022/03/21 00:38:37;;;;;;;16.77;8.53;;;1.00;87.70;;;;;;4954879;29;20189;-74
2022/03/21 00:41:04;;;;;;;12.70;8.23;;;1.00;87.80;;;;;;4954934;28;20213;-75
2022/03/21 00:43:30;;;;;;;13.20;8.27;;;0.90;88.10;;;;;;4954855;29;20529;-75
2022/03/21 00:46:00;;;;;;;12.13;8.00;;;0.90;88.10;;;;;;4953528;29;20478;-75
2022/03/21 00:48:27;;;;;;;13.73;7.80;;;0.80;88.30;;;;;;4954519;29;20572;-76
2022/03/21 00:50:54;;;;;;;8.87;7.73;;;0.90;87.90;;;;;;4954666;28;20537;-75
2022/03/21 00:53:21;;;;;;;10.53;7.67;;;0.80;88.60;;;;;;4954701;29;20419;-75
2022/03/21 00:55:48;;;;;;;13.07;8.13;;;0.70;88.60;;;;;;4954880;29;20421;-75
2022/03/21 00:58:13;;;;;;;13.03;8.17;;;0.80;87.70;;;;;;4954461;29;20786;-74
2022/03/21 05:01:13;;;;;;;11.10;4.17;;;0.00;86.20;;;;;;5567179;23;20503;-77
2022/03/21 05:03:39;;;;;;;6.97;3.93;;;0.10;85.80;;;;;;4935354;29;20499;-76
2022/03/21 05:06:05;;;;;;;9.40;4.13;;;0.10;85.90;;;;;;4935500;29;20560;-76
2022/03/21 05:08:31;;;;;;;15.37;5.00;;;0.10;86.00;;;;;;4934765;29;20179;-76
2022/03/21 05:10:57;;;;;;;5.23;4.20;;;0.10;85.80;;;;;;4935343;29;20772;-77
2022/03/21 05:13:23;;;;;;;6.97;4.37;;;0.10;86.00;;;;;;4936467;29;20179;-76
2022/03/21 05:15:49;;;;;;;5.10;4.47;;;0.10;85.90;;;;;;4939435;29;20180;-76
2022/03/21 05:18:16;;;;;;;11.33;6.40;;;0.10;85.70;;;;;;4920895;29;20431;-76
2022/03/21 07:15:56;;;;;;;8.87;5.93;;;6.30;68.30;;;;;;5149630;23;20475;-76
2022/03/21 07:18:22;;;;;;;7.27;4.87;;;4.90;70.30;;;;;;4944158;29;20420;-76
2022/03/21 07:20:48;;;;;;;10.30;7.80;;;4.90;71.20;;;;;;4941878;29;20434;-76
2022/03/21 07:23:13;;;;;;;7.10;4.60;;;5.30;70.90;;;;;;4927601;29;20306;-76
2022/03/21 07:25:39;;;;;;;8.20;5.40;;;5.00;71.00;;;;;;4949337;29;20680;-75
2022/03/21 07:28:04;;;;;;;8.87;7.07;;;5.10;70.80;;;;;;4950641;29;20189;-76
2022/03/21 07:30:30;;;;;;;7.93;5.50;;;5.30;70.40;;;;;;4931430;29;20670;-76
2022/03/21 07:32:57;;;;;;;6.70;4.60;;;5.30;70.40;;;;;;4939439;29;20198;-76
2022/03/21 07:35:23;;;;;;;9.67;5.00;;;5.40;69.20;;;;;;4926887;29;20218;-75
2022/03/21 07:37:52;;;;;;;14.60;6.80;;;5.30;69.50;;;;;;4937327;29;20426;-76
2022/03/21 07:40:18;;;;;;;8.07;5.83;;;5.50;70.40;;;;;;4951824;29;20190;-76
2022/03/21 07:42:45;;;;;;;6.83;4.60;;;6.30;68.60;;;;;;4944250;29;20534;-76
2022/03/21 07:47:58;;;;;;;6.57;4.97;;;5.50;68.90;;;;;;4950401;29;20437;-73
2022/03/21 07:50:26;;;;;;;8.17;5.83;;;5.20;70.10;;;;;;4955194;29;20470;-74
2022/03/21 07:52:52;;;;;;;7.57;4.90;;;5.60;70.40;;;;;;4954601;29;20513;-72
2022/03/21 08:23:47;;;;;;;6.37;4.10;;;4.70;70.60;;;;;;5786334;23;20513;-77
2022/03/21 08:26:13;;;;;;;4.23;3.80;;;4.60;71.60;;;;;;4933848;29;20454;-77
2022/03/21 08:28:38;;;;;;;5.37;4.20;;;4.70;71.20;;;;;;4950851;29;20427;-77
2022/03/21 08:31:04;;;;;;;5.13;4.23;;;4.70;70.90;;;;;;4954662;29;20206;-77
2022/03/21 08:33:30;;;;;;;6.53;5.37;;;4.70;71.30;;;;;;4954511;29;20182;-77
2022/03/21 08:35:55;;;;;;;7.60;4.63;;;4.70;71.40;;;;;;4954035;29;20739;-76
2022/03/21 08:38:21;;;;;;;6.20;4.00;;;4.40;70.80;;;;;;4953862;29;20191;-78
2022/03/21 08:40:47;;;;;;;12.57;6.17;;;4.80;70.60;;;;;;4937233;29;20700;-77
2022/03/21 08:43:12;;;;;;;4.80;3.63;;;5.70;70.70;;;;;;4953948;29;20225;-78
2022/03/21 08:45:40;;;;;;;6.80;4.73;;;6.30;69.10;;;;;;4936925;29;20195;-77
2022/03/21 08:48:05;;;;;;;6.70;4.60;;;6.20;66.80;;;;;;4953548;28;20167;-77
2022/03/21 08:50:33;;;;;;;7.63;3.73;;;6.60;67.20;;;;;;4953824;29;20421;-77
2022/03/21 08:52:58;;;;;;;7.70;4.23;;;6.90;66.40;;;;;;4953983;29;20186;-77
2022/03/21 08:55:24;;;;;;;5.80;4.40;;;6.20;66.10;;;;;;4954117;29;20438;-76
2022/03/21 08:57:50;;;;;;;8.07;5.07;;;6.50;66.50;;;;;;4936399;29;20187;-75
2022/03/21 09:00:16;;;;;;;10.30;5.47;;;6.60;66.30;;;;;;4952692;29;20430;-74
2022/03/21 09:02:42;;;;;;;19.33;7.73;;;6.50;67.00;;;;;;4953312;29;20799;-75
2022/03/21 09:05:12;;;;;;;11.97;5.17;;;6.40;67.00;;;;;;4954180;29;20195;-73
2022/03/21 09:07:38;;;;;;;7.30;5.40;;;6.50;67.00;;;;;;4952660;29;20267;-74
2022/03/21 09:10:04;;;;;;;6.83;3.53;;;6.40;66.90;;;;;;4935763;29;20509;-74
2022/03/21 09:12:32;;;;;;;7.03;4.80;;;6.70;68.00;;;;;;4954313;29;20646;-73
2022/03/21 10:45:49;;;;;;;8.00;5.27;;;10.00;62.00;;;;;;5524598;23;20490;-73
2022/03/21 10:48:26;;;;;;;6.33;4.83;;;10.20;60.60;;;;;;4935718;28;20427;-71
2022/03/21 10:50:54;;;;;;;13.37;6.17;;;9.90;59.70;;;;;;4937523;29;20418;-71
2022/03/21 10:53:25;;;;;;;9.63;6.27;;;9.50;60.30;;;;;;4937639;29;20508;-71
2022/03/21 11:33:11;;;;;;;13.10;5.40;;;9.60;60.30;;;;;;4965380;28;20922;-74
2022/03/21 11:36:06;;;;;;;7.30;5.37;;;9.80;61.00;;;;;;5142124;23;21188;-72
2022/03/21 11:38:41;;;;;;;11.67;6.97;;;9.50;60.30;;;;;;4919258;29;20451;-72
2022/03/21 11:41:25;;;;;;;8.57;5.33;;;9.40;61.00;;;;;;4936538;29;20502;-72
2022/03/21 11:44:06;;;;;;;11.40;6.90;;;9.50;60.60;;;;;;4932047;29;20480;-75
2022/03/21 11:46:36;;;;;;;9.83;5.90;;;9.20;61.80;;;;;;4890312;29;20946;-74
2022/03/21 11:49:05;;;;;;;11.77;6.97;;;9.30;60.80;;;;;;4892493;29;20422;-73
2022/03/21 11:51:44;;;;;;;13.53;5.90;;;9.60;62.10;;;;;;4906806;29;20408;-74
2022/03/21 11:54:24;;;;;;;12.20;5.60;;;9.70;60.50;;;;;;4898258;29;20428;-73
2022/03/21 11:56:53;;;;;;;10.73;6.60;;;9.30;60.10;;;;;;4898355;29;20891;-74
2022/03/21 11:59:33;;;;;;;11.57;7.33;;;9.70;61.40;;;;;;4899264;29;20429;-74
2022/03/21 12:02:08;;;;;;;9.00;6.10;;;9.70;61.90;;;;;;4897949;29;20492;-75
2022/03/21 12:04:34;;;;;;;6.57;4.60;;;9.30;60.40;;;;;;4897845;29;20472;-75
2022/03/21 12:07:20;;;;;;;11.17;5.83;;;9.50;60.90;;;;;;4898218;29;20848;-75
2022/03/21 12:09:51;;;;;;;6.20;5.33;;;9.70;60.50;;;;;;4897663;29;20421;-74
2022/03/21 12:12:17;;;;;;;7.13;5.40;;;9.80;60.90;;;;;;4898253;29;20419;-76
2022/03/21 12:14:45;;;;;;;11.10;5.20;;;9.40;60.90;;;;;;4897638;29;20445;-76
2022/03/21 12:17:10;;;;;;;9.57;5.90;;;9.50;61.50;;;;;;4881676;29;20444;-76
2022/03/21 12:19:45;;;;;;;9.07;6.70;;;9.60;60.90;;;;;;4902081;29;20799;-75
2022/03/21 12:22:43;;;;;;;9.20;5.87;;;9.80;62.00;;;;;;4898972;29;20206;-75
2022/03/21 12:25:11;;;;;;;9.80;6.40;;;10.00;62.10;;;;;;4916565;29;20452;-74
2022/03/21 12:27:47;;;;;;;7.97;6.20;;;10.30;61.30;;;;;;4916490;29;20409;-75
2022/03/21 12:30:26;;;;;;;8.03;5.80;;;10.30;60.10;;;;;;4902816;29;21014;-76
2022/03/21 12:32:53;;;;;;;7.13;6.40;;;10.50;60.20;;;;;;4911292;29;20879;-76
2022/03/21 12:35:31;;;;;;;13.70;6.90;;;10.10;60.20;;;;;;4916478;29;20464;-76
2022/03/21 12:38:21;;;;;;;8.60;6.80;;;9.90;59.30;;;;;;4916083;29;20436;-75
2022/03/21 12:40:50;;;;;;;10.23;4.90;;;9.70;60.60;;;;;;4916518;29;20421;-74
2022/03/21 12:43:43;;;;;;;13.20;6.40;;;9.90;59.70;;;;;;4881183;29;20461;-75
2022/03/21 12:46:16;;;;;;;11.17;6.73;;;10.10;59.40;;;;;;4894803;29;20480;-75
2022/03/21 12:48:53;;;;;;;13.00;7.30;;;10.10;60.50;;;;;;4897229;29;20443;-74
2022/03/21 12:51:35;;;;;;;10.27;6.63;;;10.30;60.60;;;;;;4880868;29;20507;-74
2022/03/21 12:54:05;;;;;;;7.00;5.70;;;10.70;60.70;;;;;;4880419;29;20842;-73
2022/03/21 12:56:32;;;;;;;6.30;5.00;;;10.80;59.80;;;;;;4873564;29;20895;-74
2022/03/21 12:59:01;;;;;;;8.47;6.20;;;10.30;58.80;;;;;;4889644;29;21103;-74
2022/03/21 13:01:27;;;;;;;10.00;7.30;;;10.50;59.40;;;;;;4908305;29;20441;-75
2022/03/21 13:10:32;;;;;;;11.73;7.57;;;10.50;60.60;;;;;;4884419;29;21037;-74
2022/03/21 13:12:34;;;;;;;9.23;6.10;;;10.70;59.10;;;;;;4915904;29;20423;-76
2022/03/21 13:15:01;;;;;;;10.13;5.23;;;11.10;60.20;;;;;;4915884;29;20542;-74
2022/03/21 13:17:48;;;;;;;9.63;5.77;;;11.20;59.20;;;;;;4896564;29;20412;-75
2022/03/21 13:20:17;;;;;;;7.20;6.50;;;10.80;58.60;;;;;;4887278;29;20433;-74
2022/03/21 13:22:43;;;;;;;9.27;6.27;;;10.80;60.10;;;;;;4891566;29;20421;-76
2022/03/21 13:25:24;;;;;;;8.10;6.90;;;11.10;59.60;;;;;;4910087;29;20504;-75
2022/03/21 13:27:50;;;;;;;8.50;7.37;;;11.20;59.20;;;;;;4914932;29;20180;-75
2022/03/21 13:30:17;;;;;;;9.53;6.10;;;11.10;58.50;;;;;;4911289;29;20425;-75
2022/03/21 13:32:44;;;;;;;7.40;5.60;;;11.10;58.80;;;;;;4894380;29;20425;-77
2022/03/21 13:35:12;;;;;;;7.33;6.40;;;11.10;59.10;;;;;;4909055;29;20508;-76
2022/03/21 13:37:38;;;;;;;13.10;7.20;;;10.80;59.20;;;;;;4898487;29;20444;-75
2022/03/21 13:40:07;;;;;;;10.10;6.20;;;10.80;58.90;;;;;;4914335;29;20459;-74
2022/03/21 13:42:39;;;;;;;11.43;7.20;;;11.00;58.90;;;;;;4910442;29;20429;-76
2022/03/21 13:45:06;;;;;;;9.37;6.83;;;11.40;60.10;;;;;;4897779;29;20433;-75
2022/03/21 13:47:50;;;;;;;7.67;5.70;;;11.20;58.40;;;;;;4894891;29;20819;-76
2022/03/21 13:50:16;;;;;;;11.50;5.40;;;11.10;58.90;;;;;;4897016;29;20786;-77
2022/03/21 13:52:50;;;;;;;9.10;7.00;;;11.00;59.30;;;;;;4903684;29;20558;-76
2022/03/21 13:55:25;;;;;;;11.93;6.77;;;11.00;59.40;;;;;;4896649;29;20855;-77
2022/03/21 13:57:52;;;;;;;10.00;6.70;;;11.20;59.60;;;;;;4896537;29;20488;-75
2022/03/21 14:00:35;;;;;;;8.27;6.37;;;11.60;59.70;;;;;;4896568;29;20413;-75
2022/03/21 14:03:01;;;;;;;9.23;7.30;;;11.80;59.70;;;;;;4879668;29;20460;-75
2022/03/21 14:05:35;;;;;;;11.77;6.70;;;11.50;59.20;;;;;;4897675;29;20444;-76
2022/03/21 14:08:14;;;;;;;6.20;5.10;;;11.60;59.50;;;;;;4896596;29;20445;-75
2022/03/21 14:10:44;;;;;;;9.30;6.83;;;11.40;58.40;;;;;;4896570;29;20915;-75
2022/03/21 14:13:20;;;;;;;9.93;7.40;;;11.20;59.80;;;;;;4879933;29;20429;-75
2022/03/21 14:15:47;;;;;;;8.53;5.77;;;11.60;60.20;;;;;;4896610;29;20428;-75
2022/03/21 14:18:17;;;;;;;6.63;5.20;;;11.60;58.60;;;;;;4893319;29;20444;-72
2022/03/21 14:20:43;;;;;;;10.90;6.40;;;11.40;60.10;;;;;;4889233;29;20473;-74
2022/03/21 14:23:08;;;;;;;8.03;6.37;;;11.20;58.80;;;;;;4900392;29;20461;-71
2022/03/21 14:28:19;;;;;;;11.47;6.07;;;11.10;58.40;;;;;;4905960;29;20203;-73
2022/03/21 14:30:44;;;;;;;7.10;6.20;;;11.20;58.20;;;;;;4887983;29;20422;-74
2022/03/21 14:33:10;;;;;;;9.17;6.97;;;11.20;57.90;;;;;;4888374;29;20212;-74
2022/03/21 14:35:36;;;;;;;8.20;7.20;;;11.20;58.70;;;;;;4891118;29;20604;-74
2022/03/21 14:38:01;;;;;;;13.77;6.27;;;11.40;57.80;;;;;;4899072;29;20191;-73
2022/03/21 14:40:27;;;;;;;7.73;5.33;;;11.40;58.10;;;;;;4915172;29;20215;-74
2022/03/21 14:42:52;;;;;;;6.90;6.20;;;11.40;57.40;;;;;;4915306;29;20302;-74
2022/03/21 14:45:18;;;;;;;7.90;6.30;;;11.20;58.00;;;;;;4916232;29;20192;-74
2022/03/21 14:47:44;;;;;;;8.90;6.20;;;11.50;58.00;;;;;;4900722;29;20180;-75
2022/03/21 14:50:10;;;;;;;11.10;6.27;;;11.40;57.60;;;;;;4903257;29;20215;-75
2022/03/21 14:52:37;;;;;;;7.53;5.13;;;11.50;58.70;;;;;;4882981;29;20443;-76
2022/03/21 14:55:04;;;;;;;9.33;5.57;;;11.60;58.00;;;;;;4906135;29;21035;-74
2022/03/21 14:57:29;;;;;;;9.70;6.53;;;11.50;57.90;;;;;;4916753;29;20508;-72
2022/03/21 14:59:55;;;;;;;11.27;6.13;;;11.40;57.50;;;;;;4913336;29;20469;-73
2022/03/21 15:02:21;;;;;;;7.47;5.90;;;11.50;57.40;;;;;;4907405;29;20181;-74
2022/03/21 15:12:32;;;;;;;10.17;5.70;;;11.70;55.90;;;;;;4916711;23;20486;-72
2022/03/21 15:30:30;;;;;;;9.43;7.03;;;12.30;56.90;;;;;;5901717;23;20479;-72
2022/03/21 15:32:56;;;;;;;6.63;5.10;;;12.20;56.10;;;;;;4919846;29;20461;-72
2022/03/21 15:43:17;;;;;;;10.40;5.90;;;12.30;55.90;;;;;;4936908;29;20462;-72
2022/03/21 15:53:28;;;;;;;14.03;6.80;;;12.40;56.10;;;;;;5533481;23;20494;-74
2022/03/21 15:58:29;;;;;;;7.57;5.43;;;12.10;56.50;;;;;;4955273;23;20242;-72
2022/03/21 16:00:55;;;;;;;7.43;5.50;;;11.80;56.50;;;;;;4936727;29;20404;-72
2022/03/21 16:03:22;;;;;;;7.73;5.43;;;11.90;56.10;;;;;;4936494;29;20725;-71
2022/03/21 16:05:47;;;;;;;19.13;7.93;;;11.70;57.30;;;;;;4936179;29;20195;-72
2022/03/21 16:08:13;;;;;;;5.73;4.30;;;11.60;56.40;;;;;;4936188;29;20430;-74
2022/03/21 16:10:38;;;;;;;9.60;5.20;;;11.40;55.60;;;;;;4937005;29;20172;-74
2022/03/21 16:13:04;;;;;;;9.57;5.23;;;11.60;55.40;;;;;;4919036;29;20190;-73
2022/03/21 16:18:36;;;;;;;10.83;4.80;;;11.40;56.80;;;;;;4967149;23;20255;-73
2022/03/21 16:22:03;;;;;;;12.60;5.30;;;11.30;56.60;;;;;;4934951;29;21164;-73
2022/03/21 16:24:28;;;;;;;11.87;5.30;;;11.40;56.20;;;;;;4904685;29;20984;-73
2022/03/21 16:26:54;;;;;;;9.47;5.70;;;11.20;55.80;;;;;;4928413;29;20439;-72
2022/03/21 16:29:20;;;;;;;17.00;6.20;;;11.20;56.40;;;;;;4908074;29;20275;-73
2022/03/21 16:31:46;;;;;;;10.73;6.47;;;10.90;57.00;;;;;;4929748;29;20181;-73
2022/03/21 16:34:12;;;;;;;17.03;11.97;;;10.60;57.70;;;;;;4915771;29;20177;-73
2022/03/21 16:36:39;;;;;;;23.40;14.07;;;10.30;57.40;;;;;;4919642;29;20601;-72
2022/03/21 16:39:07;;;;;;;9.00;5.30;;;10.20;57.80;;;;;;4924154;29;20492;-72
2022/03/21 16:41:34;;;;;;;8.20;4.70;;;10.20;58.30;;;;;;4924390;29;20498;-72
2022/03/21 16:44:00;;;;;;;6.30;4.80;;;10.00;58.90;;;;;;4925927;29;20558;-72
2022/03/21 16:46:26;;;;;;;6.53;5.20;;;9.70;59.50;;;;;;4929103;29;20494;-70
2022/03/21 16:48:52;;;;;;;7.37;4.33;;;9.50;60.90;;;;;;4917777;29;20432;-71
2022/03/21 16:51:25;;;;;;;10.70;4.83;;;9.40;61.10;;;;;;4935504;29;20909;-74
2022/03/21 16:53:54;;;;;;;8.20;4.43;;;9.10;61.80;;;;;;4925835;29;20215;-74
2022/03/21 16:56:20;;;;;;;9.80;6.13;;;9.00;61.80;;;;;;4909483;29;20466;-73
2022/03/21 16:58:45;;;;;;;8.23;6.57;;;8.70;63.70;;;;;;4907484;29;20446;-74
2022/03/21 17:01:14;;;;;;;17.40;7.10;;;8.30;65.30;;;;;;4920738;29;20495;-73
2022/03/21 17:03:46;;;;;;;8.97;7.83;;;8.10;66.30;;;;;;4926618;29;20546;-74
2022/03/21 17:06:16;;;;;;;14.90;10.43;;;7.80;67.00;;;;;;4934317;29;20483;-73
2022/03/21 17:08:41;;;;;;;12.60;7.60;;;7.60;67.10;;;;;;4933282;29;20425;-75
2022/03/21 17:11:07;;;;;;;8.40;5.43;;;7.70;66.20;;;;;;4935357;29;20407;-74
2022/03/21 17:13:34;;;;;;;8.50;6.60;;;7.80;64.70;;;;;;4935445;29;20690;-77
2022/03/21 17:16:00;;;;;;;10.23;5.63;;;8.00;64.10;;;;;;4917473;29;20199;-73
2022/03/21 17:23:45;;;;;;;10.70;5.10;;;8.10;62.70;;;;;;4933152;29;20470;-73
2022/03/21 17:26:12;;;;;;;13.27;6.10;;;8.10;62.20;;;;;;4914173;29;20454;-74
2022/03/21 17:28:38;;;;;;;8.70;5.93;;;8.00;62.40;;;;;;4901034;29;20179;-74
2022/03/21 17:31:05;;;;;;;62.83;47.40;;;8.00;62.10;;;;;;4923548;29;20511;-73
2022/03/21 17:33:30;;;;;;;110.00;75.67;;;8.00;61.70;;;;;;4922519;29;20778;-73
2022/03/21 17:35:57;;;;;;;32.23;28.60;;;8.00;61.70;;;;;;4910162;29;20459;-73
2022/03/21 17:38:23;;;;;;;16.60;10.10;;;8.00;61.80;;;;;;4932216;29;20697;-74
2022/03/21 17:40:49;;;;;;;9.07;5.70;;;7.90;61.70;;;;;;4934708;29;20412;-75
2022/03/21 17:43:16;;;;;;;7.50;5.57;;;7.90;61.70;;;;;;4917184;29;20847;-75
2022/03/21 17:45:44;;;;;;;7.47;6.33;;;7.80;62.00;;;;;;4933770;29;20439;-74
2022/03/21 17:48:10;;;;;;;7.80;5.77;;;7.70;62.10;;;;;;4931937;29;20408;-75
2022/03/21 17:50:36;;;;;;;7.00;5.00;;;7.70;62.30;;;;;;4932075;29;20422;-75
2022/03/21 17:53:26;;;;;;;6.60;4.97;;;7.60;62.20;;;;;;4932739;29;20423;-74
2022/03/21 17:55:50;;;;;;;9.03;5.67;;;7.60;62.30;;;;;;4932585;29;20238;-75
2022/03/21 17:58:15;;;;;;;8.03;6.70;;;7.70;61.80;;;;;;4932192;29;20498;-72
2022/03/21 18:00:42;;;;;;;11.47;6.47;;;7.70;61.90;;;;;;4932958;29;20420;-74
2022/03/21 18:03:07;;;;;;;9.63;6.70;;;7.70;62.20;;;;;;4934196;29;20210;-74
2022/03/21 18:05:33;;;;;;;6.20;5.20;;;7.50;62.80;;;;;;4932825;29;20448;-74
2022/03/21 18:07:58;;;;;;;7.20;4.90;;;7.30;63.30;;;;;;4916575;29;20176;-74
2022/03/21 18:10:24;;;;;;;6.07;4.60;;;7.30;63.60;;;;;;4917822;29;20178;-75
2022/03/21 18:12:51;;;;;;;8.00;5.90;;;7.30;63.20;;;;;;4934678;29;20176;-75
2022/03/21 18:15:17;;;;;;;15.07;6.73;;;7.20;63.50;;;;;;4928703;29;20243;-75
2022/03/21 18:17:42;;;;;;;8.97;5.90;;;7.10;64.10;;;;;;4933237;29;20425;-75
2022/03/21 18:20:08;;;;;;;12.33;6.70;;;7.00;64.10;;;;;;4914324;29;20203;-74
2022/03/21 18:22:34;;;;;;;11.33;5.80;;;6.80;65.10;;;;;;4918108;29;20600;-72
2022/03/21 18:25:00;;;;;;;9.70;5.50;;;6.70;65.10;;;;;;4921137;29;20470;-72
2022/03/21 18:27:27;;;;;;;18.67;5.73;;;6.70;65.20;;;;;;4930263;29;20173;-79
2022/03/21 18:29:53;;;;;;;10.80;6.10;;;6.70;65.40;;;;;;4919273;29;20215;-74
2022/03/21 18:32:19;;;;;;;9.10;5.77;;;6.70;65.60;;;;;;4919352;29;20484;-74
2022/03/21 18:34:44;;;;;;;10.47;6.00;;;6.60;65.80;;;;;;4919230;29;20621;-74
2022/03/21 18:37:10;;;;;;;10.80;6.43;;;6.50;66.10;;;;;;4919130;29;20177;-73
2022/03/21 18:39:37;;;;;;;8.17;5.37;;;6.50;66.10;;;;;;4902038;29;20191;-73
2022/03/21 18:42:04;;;;;;;14.27;7.40;;;6.50;66.20;;;;;;4919049;29;20914;-73
2022/03/21 18:44:40;;;;;;;9.30;7.53;;;6.40;66.70;;;;;;4918975;29;20476;-73
2022/03/21 18:47:06;;;;;;;11.47;7.73;;;6.30;67.00;;;;;;4902211;29;20860;-74
2022/03/21 18:49:31;;;;;;;11.30;6.20;;;6.40;66.40;;;;;;4918830;29;20413;-73
2022/03/21 18:51:57;;;;;;;11.03;7.63;;;6.30;66.60;;;;;;4902014;29;20180;-73
2022/03/21 18:54:22;;;;;;;9.37;6.20;;;6.40;66.40;;;;;;4918851;29;20197;-72
2022/03/21 18:56:48;;;;;;;13.30;7.80;;;6.30;66.40;;;;;;4918916;29;20188;-73
2022/03/21 18:59:13;;;;;;;9.90;5.97;;;6.50;65.80;;;;;;4918696;29;20180;-74
2022/03/21 19:01:39;;;;;;;7.87;6.23;;;6.30;66.50;;;;;;4930260;29;20191;-75
2022/03/21 19:04:04;;;;;;;10.53;6.70;;;6.50;66.00;;;;;;4931693;29;20242;-77
2022/03/21 19:06:30;;;;;;;9.80;6.40;;;6.40;66.10;;;;;;4952192;29;20241;-75
2022/03/21 19:08:56;;;;;;;8.47;5.83;;;6.30;66.20;;;;;;4938912;29;20207;-75
2022/03/21 19:11:22;;;;;;;24.00;15.17;;;6.30;66.20;;;;;;4938793;29;20191;-75
2022/03/21 19:13:47;;;;;;;17.13;10.10;;;6.30;66.40;;;;;;4925969;29;20427;-75
2022/03/21 19:16:13;;;;;;;17.43;10.17;;;6.20;66.80;;;;;;4934483;29;20200;-72
2022/03/21 19:18:40;;;;;;;13.70;8.10;;;6.10;67.00;;;;;;4934663;29;20565;-72
2022/03/21 19:21:07;;;;;;;12.07;8.87;;;6.10;67.00;;;;;;4929999;29;20192;-73
2022/03/21 19:23:33;;;;;;;12.80;7.33;;;6.10;66.90;;;;;;4913948;29;20821;-73
2022/03/21 19:25:58;;;;;;;30.40;13.00;;;6.00;66.90;;;;;;4929597;29;20463;-75
2022/03/21 19:28:24;;;;;;;14.83;9.17;;;5.80;67.70;;;;;;4918342;29;20668;-74
2022/03/21 19:30:49;;;;;;;11.80;7.10;;;5.80;67.50;;;;;;4948865;28;20311;-74
2022/03/21 19:33:15;;;;;;;8.40;5.73;;;5.80;67.60;;;;;;4928112;29;20278;-74
2022/03/21 19:35:40;;;;;;;9.97;5.53;;;5.90;67.40;;;;;;4940782;29;20290;-76
2022/03/21 19:38:06;;;;;;;7.80;5.50;;;5.90;67.30;;;;;;4931732;29;20188;-73
2022/03/21 19:40:33;;;;;;;15.73;6.53;;;5.80;67.40;;;;;;4933207;29;20199;-75
2022/03/21 19:43:03;;;;;;;26.00;12.27;;;5.90;67.30;;;;;;4913004;29;20239;-73
2022/03/21 19:45:30;;;;;;;16.03;9.63;;;5.70;68.20;;;;;;4922774;29;20476;-74
2022/03/21 19:47:59;;;;;;;14.60;8.80;;;5.60;68.10;;;;;;4927547;29;20410;-73
2022/03/21 19:50:25;;;;;;;10.43;7.33;;;5.60;68.30;;;;;;4934142;29;20477;-74
2022/03/21 19:52:51;;;;;;;12.30;5.83;;;5.60;68.20;;;;;;4932728;29;20420;-74
2022/03/21 19:55:17;;;;;;;8.30;5.90;;;5.50;68.60;;;;;;4927943;29;20472;-74
2022/03/21 19:57:51;;;;;;;10.77;7.00;;;5.60;68.20;;;;;;4927108;29;21054;-73
2022/03/21 20:00:20;;;;;;;8.73;6.50;;;5.50;68.50;;;;;;4928946;29;20491;-74
2022/03/21 20:02:46;;;;;;;10.93;6.77;;;5.40;68.70;;;;;;4916114;29;20413;-73
2022/03/21 20:05:13;;;;;;;10.37;6.83;;;5.40;68.80;;;;;;4900350;29;20437;-73
2022/03/21 20:07:40;;;;;;;10.80;7.43;;;5.40;69.00;;;;;;4900273;29;20417;-74
2022/03/21 20:10:07;;;;;;;8.90;6.37;;;5.40;69.30;;;;;;4917442;29;20776;-73
2022/03/21 20:12:33;;;;;;;11.40;6.73;;;5.20;70.00;;;;;;4922902;29;20421;-73
2022/03/21 20:14:59;;;;;;;14.43;6.30;;;5.20;70.10;;;;;;4908913;29;20436;-73
2022/03/21 20:17:24;;;;;;;10.83;5.40;;;5.20;69.40;;;;;;4913321;29;20802;-73
2022/03/21 20:19:50;;;;;;;8.80;6.10;;;5.20;69.60;;;;;;4919886;29;20662;-73
2022/03/21 20:22:15;;;;;;;10.23;7.50;;;5.20;69.80;;;;;;4931702;29;20184;-73
2022/03/21 20:24:41;;;;;;;12.03;6.93;;;5.00;70.20;;;;;;4924659;29;20210;-74
2022/03/21 20:27:07;;;;;;;8.30;6.10;;;5.00;70.40;;;;;;4924694;29;20215;-73
2022/03/21 20:29:33;;;;;;;10.87;6.30;;;5.10;70.00;;;;;;4930937;29;20187;-73
2022/03/21 20:31:58;;;;;;;9.03;6.17;;;5.00;70.40;;;;;;4920092;29;20420;-74
2022/03/21 20:34:24;;;;;;;14.33;6.90;;;5.00;69.90;;;;;;4930212;29;20255;-74
2022/03/21 20:36:50;;;;;;;10.57;6.50;;;4.90;70.70;;;;;;4925700;29;20195;-74
2022/03/21 20:39:16;;;;;;;10.40;5.43;;;4.90;70.70;;;;;;4922859;29;20188;-74
2022/03/21 20:41:43;;;;;;;11.53;5.87;;;4.80;71.10;;;;;;4915391;29;20439;-74
2022/03/21 20:44:09;;;;;;;9.73;5.70;;;4.80;70.60;;;;;;4919313;29;20231;-74
2022/03/21 20:46:35;;;;;;;23.93;6.30;;;4.90;70.50;;;;;;4928545;29;20917;-74
2022/03/21 20:49:01;;;;;;;9.57;6.60;;;4.80;70.70;;;;;;4909330;29;20436;-74
2022/03/21 20:51:27;;;;;;;9.93;5.87;;;4.80;70.50;;;;;;4904809;29;20605;-74
2022/03/21 20:53:53;;;;;;;9.13;6.30;;;4.80;70.40;;;;;;4915066;29;20435;-73
2022/03/21 20:56:18;;;;;;;16.70;6.80;;;4.80;70.30;;;;;;4904145;29;20448;-73
2022/03/21 20:58:44;;;;;;;10.70;6.60;;;4.80;70.50;;;;;;4926623;29;20259;-73
2022/03/21 21:01:09;;;;;;;12.97;7.43;;;4.70;70.80;;;;;;4910604;29;20278;-73
2022/03/21 21:03:35;;;;;;;13.70;6.17;;;4.70;70.90;;;;;;4920350;29;20577;-73
2022/03/21 21:06:00;;;;;;;9.67;5.70;;;4.60;71.00;;;;;;4912707;29;20204;-73
2022/03/21 21:08:26;;;;;;;7.90;5.77;;;4.60;71.10;;;;;;4915856;29;20187;-73
2022/03/21 21:10:52;;;;;;;15.30;6.80;;;4.60;70.90;;;;;;4899508;29;20680;-73
2022/03/21 21:13:22;;;;;;;9.30;6.10;;;4.60;70.90;;;;;;4899355;29;20215;-73
2022/03/21 21:15:49;;;;;;;15.33;6.13;;;4.70;70.80;;;;;;4899201;29;20258;-73
2022/03/21 21:18:14;;;;;;;8.13;5.53;;;4.70;70.30;;;;;;4897929;29;20431;-73
2022/03/21 21:20:41;;;;;;;11.50;6.57;;;4.60;70.80;;;;;;4916100;29;20448;-73
2022/03/21 21:23:09;;;;;;;10.10;5.80;;;4.60;70.70;;;;;;4916018;29;20650;-73
2022/03/21 21:25:35;;;;;;;9.27;5.80;;;4.40;71.10;;;;;;4916041;29;20440;-73
2022/03/21 21:28:01;;;;;;;12.00;7.20;;;4.30;71.40;;;;;;4915849;29;20765;-73
2022/03/21 21:30:27;;;;;;;17.00;10.47;;;4.30;71.50;;;;;;4916095;29;20468;-73
2022/03/21 21:32:52;;;;;;;10.47;6.40;;;4.10;71.90;;;;;;4916003;29;20268;-73
2022/03/21 21:35:18;;;;;;;7.37;5.67;;;4.00;71.90;;;;;;4915979;29;20436;-74
2022/03/21 21:37:45;;;;;;;9.73;6.70;;;3.90;72.40;;;;;;4915722;29;20268;-73
2022/03/21 21:40:11;;;;;;;9.90;6.37;;;3.80;72.60;;;;;;4916011;29;20420;-74
2022/03/21 21:42:38;;;;;;;9.90;8.63;;;3.70;72.70;;;;;;4898979;29;20425;-74
2022/03/21 21:45:05;;;;;;;7.83;6.53;;;3.60;72.70;;;;;;4898750;29;21057;-74
2022/03/21 21:47:31;;;;;;;9.80;6.83;;;3.40;73.70;;;;;;4915518;29;20914;-73
2022/03/21 21:49:59;;;;;;;11.93;6.70;;;3.00;74.60;;;;;;4915840;29;20815;-73
2022/03/21 21:52:27;;;;;;;13.20;8.43;;;2.60;76.10;;;;;;4915865;29;20423;-74
2022/03/21 21:54:53;;;;;;;11.73;6.50;;;2.50;76.00;;;;;;4915658;29;20436;-73
2022/03/21 21:57:19;;;;;;;15.80;8.00;;;2.30;77.10;;;;;;4915755;29;20452;-74
2022/03/21 21:59:45;;;;;;;10.50;6.60;;;2.10;77.80;;;;;;4915526;29;21077;-73
2022/03/21 22:02:11;;;;;;;14.20;8.67;;;2.00;79.00;;;;;;4915620;29;20327;-74
2022/03/21 22:04:38;;;;;;;17.30;9.23;;;1.80;78.70;;;;;;4898730;29;20562;-73
2022/03/21 22:07:04;;;;;;;17.97;9.97;;;2.00;78.40;;;;;;4915670;29;20323;-74
2022/03/21 22:09:30;;;;;;;11.87;8.20;;;1.90;79.00;;;;;;4898465;29;20928;-74
2022/03/21 22:11:56;;;;;;;9.37;7.10;;;1.80;79.60;;;;;;4899536;29;20835;-75
2022/03/21 23:52:38;;;;;;;10.80;6.90;;;0.80;83.30;;;;;;4935544;29;20467;-74
2022/03/21 23:55:04;;;;;;;10.77;5.80;;;0.80;83.90;;;;;;4945612;29;20434;-74
2022/03/21 23:57:30;;;;;;;11.70;6.53;;;0.70;84.10;;;;;;4956330;29;20182;-74
2022/03/21 23:59:55;;;;;;;10.13;6.30;;;0.70;84.50;;;;;;4956912;29;20406;-74
